Terminal Aerodrome Forecast
Issued by NWS St Louis, MO

Home | Current Version | Previous Version | Text Only | Print | Product List | Glossary On
Versions: 1 2 3 4 5 6 7 8 9 10 11 12 13 14 15 16 17 18 19 20 21 22 23 24 25 26 27 28
000
FTUS43 KLSX 271700 RRA
TAFSTL
TAF
KSTL 271741Z 2718/2824 35012KT P6SM OVC050
      TEMPO 2718/2719 -SN
     FM272100 35011KT P6SM SCT050
     FM280000 04005KT P6SM SCT250
     FM280600 10005KT P6SM OVC080
     FM281800 11006KT P6SM SCT120=

USA.gov is the U.S. government's official web portal to all federal, state and local government web resources and services.